Terminal Aerodrome Forecast
Issued by NWS

Home | Current Version | Previous Version | Text Only | Print | Product List | Glossary On
Versions: 1 2 3 4 5 6 7 8 9 10 11 12 13 14 15 16 17 18 19 20 21 22 23 24 25 26
000
FTUS45 KCYS 232248 AAB
TAFLAR
TAF AMD
KLAR 232248Z 2323/2418 26018G24KT P6SM VCTS SCT100CB SCT200
     FM240000 27013KT P6SM SCT200
     FM240300 07006KT P6SM OVC100
     FM241500 15014KT P6SM SCT250=

USA.gov is the U.S. government's official web portal to all federal, state and local government web resources and services.